Time;durP1;ratioP1;P1;durP2;ratioP2;P2;SDS_P1;SDS_P2;PMS_P1;PMS_P2;Temp;Humidity;BMP_temperature;BMP_pressure;BME280_temperature;BME280_humidity;BME280_pressure;Samples;Min_cycle;Max_cycle;Signal;HPM_P1;HPM_P2
2022/08/06 00:01:42;;;;;;;4.03;2.00;;;;;;;17.93;100.00;96687.09;5078391;28;20409;-75
2022/08/06 00:04:08;;;;;;;4.10;2.30;;;;;;;18.12;100.00;96689.09;5082210;28;20114;-77
2022/08/06 00:06:33;;;;;;;5.90;2.33;;;;;;;18.24;100.00;96696.50;5082052;28;20020;-78
2022/08/06 00:08:59;;;;;;;5.43;2.17;;;;;;;18.07;100.00;96699.47;5083366;28;20041;-77
2022/08/06 00:11:25;;;;;;;5.38;2.20;;;;;;;18.13;100.00;96700.53;5086712;28;20042;-76
2022/08/06 00:13:50;;;;;;;10.10;2.63;;;;;;;17.84;100.00;96713.06;5083537;28;20074;-78
2022/08/06 00:16:16;;;;;;;7.55;2.20;;;;;;;17.92;100.00;96708.59;5084105;28;20047;-77
2022/08/06 00:18:42;;;;;;;3.38;1.83;;;;;;;17.78;100.00;96710.34;5077395;28;20048;-77
2022/08/06 00:21:07;;;;;;;3.30;2.25;;;;;;;18.13;100.00;96709.34;5084597;28;20036;-76
2022/08/06 00:23:33;;;;;;;6.30;1.73;;;;;;;18.06;100.00;96702.34;5084052;28;20036;-74
2022/08/06 00:25:59;;;;;;;2.92;1.67;;;;;;;17.96;100.00;96705.34;5084109;28;20032;-76
2022/08/06 00:28:25;;;;;;;4.90;1.88;;;;;;;18.07;100.00;96710.13;5083754;28;20036;-76
2022/08/06 00:30:51;;;;;;;6.35;2.10;;;;;;;18.19;100.00;96710.41;5082953;28;20032;-75
2022/08/06 00:33:17;;;;;;;5.07;1.70;;;;;;;18.09;100.00;96718.75;5083776;28;20377;-76
2022/08/06 00:35:44;;;;;;;4.60;1.88;;;;;;;18.12;100.00;96723.69;5075360;28;20064;-76
2022/08/06 00:38:10;;;;;;;3.22;1.73;;;;;;;18.07;100.00;96728.75;5085816;28;20032;-75
2022/08/06 00:40:36;;;;;;;3.15;1.85;;;;;;;18.07;100.00;96731.41;5089434;28;20036;-76
2022/08/06 00:43:04;;;;;;;12.35;8.90;;;;;;;17.84;100.00;96722.84;5074347;28;20032;-75
2022/08/06 00:45:30;;;;;;;3.47;2.10;;;;;;;17.97;100.00;96717.63;5087043;28;20043;-76
2022/08/06 00:47:56;;;;;;;8.50;4.15;;;;;;;17.73;100.00;96723.34;5102933;28;20099;-73
2022/08/06 00:50:22;;;;;;;10.90;7.20;;;;;;;17.83;100.00;96730.00;5088345;28;21222;-76
2022/08/06 00:52:47;;;;;;;4.13;1.88;;;;;;;17.78;100.00;96731.63;5083986;28;20032;-74
2022/08/06 00:55:13;;;;;;;5.80;3.17;;;;;;;17.93;100.00;96734.19;5086215;28;20035;-76
2022/08/06 00:57:39;;;;;;;8.02;3.75;;;;;;;17.67;100.00;96738.22;5066674;28;20032;-76
2022/08/06 01:00:07;;;;;;;15.90;11.75;;;;;;;17.82;100.00;96736.34;5082031;28;20067;-76
2022/08/06 01:02:34;;;;;;;9.05;6.90;;;;;;;17.66;100.00;96732.09;5076269;28;20181;-76
2022/08/06 01:05:00;;;;;;;10.60;7.32;;;;;;;17.59;100.00;96739.19;5070336;28;20545;-76
2022/08/06 01:07:26;;;;;;;6.00;2.45;;;;;;;17.46;100.00;96738.25;5085483;28;20036;-75
2022/08/06 01:09:52;;;;;;;5.10;2.33;;;;;;;17.62;100.00;96733.50;5086664;28;20089;-76
2022/08/06 01:12:18;;;;;;;6.88;3.47;;;;;;;17.79;100.00;96742.06;5085086;28;20039;-76
2022/08/06 01:14:44;;;;;;;6.22;2.90;;;;;;;17.63;100.00;96740.44;5084462;28;20042;-76
2022/08/06 01:17:50;;;;;;;5.47;2.55;;;;;;;17.84;100.00;96746.78;5088208;28;20035;-74
2022/08/06 01:20:45;;;;;;;9.48;2.30;;;;;;;17.51;100.00;96752.63;5077778;28;20075;-74
2022/08/06 01:23:44;;;;;;;3.75;1.92;;;;;;;17.64;100.00;96752.75;5068829;28;20039;-76
2022/08/06 01:26:31;;;;;;;3.72;1.80;;;;;;;17.58;100.00;96747.38;5070273;28;20043;-76
2022/08/06 01:29:04;;;;;;;3.30;1.80;;;;;;;17.60;100.00;96748.81;5089945;28;20024;-74
2022/08/06 01:31:48;;;;;;;4.82;1.73;;;;;;;17.55;100.00;96747.75;5090401;28;20047;-75
2022/08/06 01:34:31;;;;;;;4.07;2.53;;;;;;;17.64;100.00;96747.44;5092715;28;20043;-75
2022/08/06 01:37:03;;;;;;;;;;;;;;;17.39;100.00;96756.78;5093576;28;20047;-76
2022/08/06 01:39:31;;;;;;;4.97;1.52;;;;;;;17.65;100.00;96758.91;5092314;28;19911;-75
2022/08/06 01:42:00;;;;;;;2.80;1.33;;;;;;;17.69;100.00;96744.19;5093099;28;20056;-75
2022/08/06 01:44:31;;;;;;;5.75;1.70;;;;;;;17.49;100.00;96753.81;5095098;28;20061;-76
2022/08/06 01:47:01;;;;;;;5.25;1.90;;;;;;;17.49;100.00;96757.31;5092730;28;20043;-77
2022/08/06 01:49:32;;;;;;;5.15;1.70;;;;;;;17.37;100.00;96749.03;5090404;28;20050;-76
2022/08/06 01:52:01;;;;;;;4.75;1.70;;;;;;;17.32;100.00;96742.63;5095567;28;20032;-76
2022/08/06 01:54:30;;;;;;;3.28;1.60;;;;;;;17.37;100.00;96750.84;5067619;28;20048;-74
2022/08/06 01:56:59;;;;;;;2.83;1.48;;;;;;;17.32;100.00;96746.09;5092079;28;20024;-74
2022/08/06 01:59:31;;;;;;;3.15;1.35;;;;;;;17.49;100.00;96751.97;5091729;28;20035;-74
2022/08/06 02:02:00;;;;;;;2.65;1.60;;;;;;;17.53;100.00;96747.94;5093801;28;20039;-76
2022/08/06 02:04:32;;;;;;;4.57;1.73;;;;;;;17.43;100.00;96755.41;5094268;28;20038;-76
2022/08/06 02:06:59;;;;;;;3.78;1.50;;;;;;;17.51;100.00;96747.31;5089582;28;20031;-76
2022/08/06 02:09:26;;;;;;;3.13;1.50;;;;;;;17.55;100.00;96748.56;5071971;28;20115;-75
2022/08/06 02:12:09;;;;;;;4.45;1.73;;;;;;;17.58;100.00;96750.84;5089877;28;20027;-76
2022/08/06 02:14:45;;;;;;;2.42;1.42;;;;;;;17.49;100.00;96759.97;5088941;28;20028;-77
2022/08/06 02:17:14;;;;;;;3.13;1.50;;;;;;;17.40;100.00;96753.97;5089341;28;20050;-76
2022/08/06 02:19:44;;;;;;;3.95;1.77;;;;;;;17.40;100.00;96750.47;5070020;28;20058;-77
2022/08/06 02:22:10;;;;;;;2.47;1.40;;;;;;;17.39;100.00;96760.28;5087404;28;20032;-76
2022/08/06 02:24:38;;;;;;;2.95;1.60;;;;;;;17.37;100.00;96757.00;5089445;28;20043;-76
2022/08/06 02:27:06;;;;;;;3.35;1.45;;;;;;;17.48;100.00;96768.97;5086030;28;20461;-77
2022/08/06 02:29:32;;;;;;;3.35;1.98;;;;;;;17.51;100.00;96773.09;5086184;28;20062;-76
2022/08/06 02:31:58;;;;;;;3.38;1.50;;;;;;;17.36;100.00;96765.16;5058133;28;20085;-74
2022/08/06 02:34:24;;;;;;;4.50;1.90;;;;;;;17.37;100.00;96756.16;5090030;28;20223;-76
2022/08/06 02:36:57;;;;;;;3.10;1.50;;;;;;;17.32;100.00;96763.88;5086544;28;20042;-75
2022/08/06 02:39:29;;;;;;;;;;;;;;;17.28;100.00;96752.81;5075175;28;20036;-76
2022/08/06 02:42:22;;;;;;;7.75;1.73;;;;;;;17.37;100.00;96750.84;5087713;28;19911;-74
2022/08/06 02:45:17;;;;;;;3.35;1.40;;;;;;;17.19;100.00;96765.38;5084409;28;20060;-76
2022/08/06 02:48:01;;;;;;;4.28;1.70;;;;;;;17.15;100.00;96768.59;5086557;28;20161;-76
2022/08/06 02:50:35;;;;;;;3.30;1.50;;;;;;;17.25;100.00;96771.78;5087240;28;20149;-78
2022/08/06 02:53:06;;;;;;;3.03;1.33;;;;;;;17.32;100.00;96774.53;5087335;28;20031;-76
2022/08/06 02:55:36;;;;;;;5.30;1.30;;;;;;;17.16;100.00;96771.06;5095537;28;20161;-77
2022/08/06 02:58:17;;;;;;;3.83;1.70;;;;;;;17.13;100.00;96770.63;5086346;28;20044;-75
2022/08/06 03:00:44;;;;;;;2.50;1.50;;;;;;;17.22;100.00;96774.81;5088571;28;20139;-77
2022/08/06 03:03:13;;;;;;;3.40;1.50;;;;;;;17.40;100.00;96777.03;5086255;28;20028;-75
2022/08/06 03:05:43;;;;;;;2.83;1.55;;;;;;;17.29;100.00;96783.69;5085520;28;20035;-76
2022/08/06 03:08:13;;;;;;;4.50;1.60;;;;;;;17.01;100.00;96775.59;5085646;28;20114;-76
2022/08/06 03:10:41;;;;;;;4.05;1.80;;;;;;;17.12;100.00;96780.44;5057893;28;20048;-76
2022/08/06 03:13:08;;;;;;;5.45;1.90;;;;;;;17.02;100.00;96779.91;5085980;28;20544;-77
2022/08/06 03:15:36;;;;;;;3.25;1.65;;;;;;;17.00;100.00;96789.91;5083845;28;20032;-75
2022/08/06 03:18:06;;;;;;;2.78;1.60;;;;;;;16.99;100.00;96784.75;5085626;28;20108;-77
2022/08/06 03:20:34;;;;;;;3.50;1.35;;;;;;;16.70;100.00;96787.25;5085398;28;20032;-77
2022/08/06 03:23:06;;;;;;;4.38;1.85;;;;;;;16.70;100.00;96789.09;5068055;28;20027;-76
2022/08/06 03:25:32;;;;;;;6.55;2.25;;;;;;;16.80;100.00;96780.84;5063023;28;20024;-76
2022/08/06 03:27:59;;;;;;;4.03;1.80;;;;;;;16.74;100.00;96793.00;5083266;28;21374;-77
2022/08/06 03:30:26;;;;;;;4.05;1.60;;;;;;;16.79;100.00;96789.81;5066523;28;20547;-77
2022/08/06 03:32:53;;;;;;;3.67;1.85;;;;;;;16.72;100.00;96795.84;5086847;28;20046;-76
2022/08/06 03:35:19;;;;;;;2.72;1.60;;;;;;;16.73;100.00;96789.53;5096839;28;20028;-74
2022/08/06 03:37:48;;;;;;;5.45;1.90;;;;;;;16.55;100.00;96786.41;5093816;28;20507;-74
2022/08/06 03:40:17;;;;;;;6.00;2.20;;;;;;;16.44;100.00;96781.56;5089752;28;20039;-77
2022/08/06 03:42:42;;;;;;;5.45;1.90;;;;;;;16.41;100.00;96781.94;5076473;28;20040;-77
2022/08/06 03:45:09;;;;;;;5.53;1.88;;;;;;;16.41;100.00;96779.28;5086235;28;20036;-77
2022/08/06 03:47:41;;;;;;;3.45;1.55;;;;;;;16.35;100.00;96787.97;5082236;28;20086;-77
2022/08/06 03:50:13;;;;;;;2.67;1.40;;;;;;;16.27;100.00;96791.53;5083744;28;20097;-77
2022/08/06 03:52:44;;;;;;;4.20;1.40;;;;;;;16.45;100.00;96793.81;5085871;28;20032;-77
2022/08/06 03:55:19;;;;;;;3.10;1.65;;;;;;;16.40;100.00;96802.34;5084872;28;21059;-76
2022/08/06 03:57:47;;;;;;;6.95;1.63;;;;;;;16.31;100.00;96806.09;5081885;28;20161;-77
2022/08/06 04:00:15;;;;;;;4.85;1.63;;;;;;;16.31;100.00;96807.91;5084987;28;20032;-74
2022/08/06 04:02:48;;;;;;;3.58;1.73;;;;;;;16.32;100.00;96812.22;5084350;28;20028;-76
2022/08/06 04:05:20;;;;;;;4.88;1.58;;;;;;;16.27;100.00;96807.47;5082436;28;20055;-76
2022/08/06 04:07:47;;;;;;;2.57;1.67;;;;;;;16.31;100.00;96810.56;5058168;28;20040;-77
2022/08/06 04:10:15;;;;;;;3.92;1.70;;;;;;;16.36;100.00;96809.00;5085140;28;20047;-77
2022/08/06 04:12:43;;;;;;;5.00;1.67;;;;;;;16.42;100.00;96818.09;5084653;28;20409;-77
2022/08/06 04:15:11;;;;;;;4.15;2.00;;;;;;;16.27;100.00;96820.72;5064453;28;20040;-77
2022/08/06 04:17:38;;;;;;;6.93;1.70;;;;;;;16.26;100.00;96819.06;5077508;28;20451;-75
2022/08/06 04:20:06;;;;;;;4.10;1.70;;;;;;;16.37;100.00;96820.47;5084421;28;20032;-76
2022/08/06 04:22:33;;;;;;;3.28;1.83;;;;;;;16.49;100.00;96826.97;5084532;28;20028;-75
2022/08/06 04:24:59;;;;;;;3.45;1.50;;;;;;;16.25;100.00;96828.03;5075637;28;20958;-77
2022/08/06 04:27:26;;;;;;;2.47;1.38;;;;;;;16.30;100.00;96825.69;5057660;28;20107;-77
2022/08/06 04:29:56;;;;;;;2.63;1.55;;;;;;;16.29;100.00;96825.84;5083775;28;20024;-77
2022/08/06 04:32:24;;;;;;;6.78;1.55;;;;;;;16.35;100.00;96833.09;5085183;28;20110;-77
2022/08/06 04:34:51;;;;;;;4.68;1.88;;;;;;;16.21;100.00;96840.84;5082843;28;20032;-75
2022/08/06 04:37:18;;;;;;;3.22;1.90;;;;;;;16.14;100.00;96834.59;5092697;28;20371;-73
2022/08/06 04:39:44;;;;;;;9.95;4.05;;;;;;;16.12;100.00;96838.44;5086323;28;20040;-77
2022/08/06 04:42:10;;;;;;;6.05;2.78;;;;;;;16.19;100.00;96837.53;5089992;28;20508;-76
2022/08/06 04:44:37;;;;;;;6.97;2.47;;;;;;;16.17;100.00;96839.56;5088665;28;20028;-76
2022/08/06 04:47:04;;;;;;;4.28;2.55;;;;;;;16.08;100.00;96839.81;5084231;28;20102;-76
2022/08/06 04:49:30;;;;;;;4.20;1.85;;;;;;;16.00;100.00;96840.69;5085017;28;20043;-73
2022/08/06 04:51:56;;;;;;;4.50;1.92;;;;;;;16.00;100.00;96840.69;5083774;28;20028;-77
2022/08/06 04:54:22;;;;;;;4.07;1.77;;;;;;;15.95;100.00;96851.00;5081629;28;20039;-74
2022/08/06 04:56:48;;;;;;;5.30;1.55;;;;;;;16.11;100.00;96858.84;5065540;28;20468;-76
2022/08/06 04:59:13;;;;;;;3.40;1.65;;;;;;;16.21;100.00;96863.91;5081329;28;20123;-75
2022/08/06 05:01:39;;;;;;;5.40;1.98;;;;;;;16.15;100.00;96856.66;5082622;28;20106;-77
2022/08/06 05:04:05;;;;;;;5.13;2.22;;;;;;;16.13;100.00;96853.34;5083197;28;21357;-75
2022/08/06 05:06:57;;;;;;;3.15;1.80;;;;;;;16.05;100.00;96848.13;5081973;28;20032;-76
2022/08/06 05:09:26;;;;;;;4.90;1.77;;;;;;;15.99;100.00;96866.38;5082161;28;20020;-76
2022/08/06 05:12:05;;;;;;;4.17;1.73;;;;;;;16.13;100.00;96867.47;5082506;28;20169;-75
2022/08/06 05:14:46;;;;;;;4.45;1.77;;;;;;;16.02;100.00;96870.50;5082895;28;20511;-76
2022/08/06 05:17:17;;;;;;;3.88;1.83;;;;;;;16.32;100.00;96874.06;5059467;28;20028;-76
2022/08/06 05:19:53;;;;;;;4.57;1.63;;;;;;;16.39;100.00;96874.19;5080420;28;20036;-76
2022/08/06 05:22:20;;;;;;;4.07;1.70;;;;;;;16.40;100.00;96881.97;5066651;28;20059;-75
2022/08/06 05:24:47;;;;;;;4.50;2.08;;;;;;;16.46;100.00;96889.22;5085635;28;20033;-77
2022/08/06 05:27:13;;;;;;;3.40;1.80;;;;;;;16.67;100.00;96885.88;5063992;28;20036;-76
2022/08/06 05:29:40;;;;;;;3.85;2.08;;;;;;;16.48;100.00;96892.50;5088503;28;20040;-75
2022/08/06 05:32:06;;;;;;;2.78;1.50;;;;;;;16.48;100.00;96895.16;5085255;28;20115;-76
2022/08/06 05:34:32;;;;;;;4.50;1.90;;;;;;;16.44;100.00;96890.41;5086261;28;20563;-77
2022/08/06 05:36:58;;;;;;;4.53;2.00;;;;;;;16.87;100.00;96896.00;5080685;28;20029;-77
2022/08/06 05:39:23;;;;;;;3.58;1.95;;;;;;;16.61;100.00;96904.38;5069017;28;20560;-77
2022/08/06 05:41:50;;;;;;;7.32;2.05;;;;;;;16.75;100.00;96910.72;5086468;28;20036;-74
2022/08/06 05:44:16;;;;;;;5.93;2.95;;;;;;;16.65;100.00;96901.16;5075514;28;20020;-75
2022/08/06 05:46:51;;;;;;;8.73;4.03;;;;;;;16.77;100.00;96912.22;5074126;28;20036;-74
2022/08/06 05:49:36;;;;;;;4.30;2.40;;;;;;;16.68;100.00;96915.91;5083694;28;20107;-77
2022/08/06 05:52:09;;;;;;;3.55;1.95;;;;;;;16.86;100.00;96915.59;5088976;28;20430;-75
2022/08/06 05:54:50;;;;;;;7.90;2.60;;;;;;;16.87;100.00;96914.59;5081651;28;20040;-76
2022/08/06 05:57:28;;;;;;;3.40;1.85;;;;;;;17.11;100.00;96916.97;5069500;28;20035;-76
2022/08/06 06:00:09;;;;;;;5.32;2.35;;;;;;;16.99;100.00;96907.81;5086328;28;20036;-75
2022/08/06 06:02:38;;;;;;;5.03;2.00;;;;;;;17.00;100.00;96914.78;5088293;28;20044;-76
2022/08/06 06:05:05;;;;;;;4.10;1.70;;;;;;;17.52;100.00;96913.81;5085341;28;20028;-77
2022/08/06 06:07:34;;;;;;;5.38;1.90;;;;;;;17.72;100.00;96922.03;5067639;28;20028;-75
2022/08/06 06:10:03;;;;;;;4.22;2.30;;;;;;;17.81;100.00;96917.47;5069055;28;21391;-76
2022/08/06 06:12:29;;;;;;;4.07;1.88;;;;;;;18.49;100.00;96924.06;5083387;28;20545;-74
2022/08/06 06:14:55;;;;;;;4.85;2.00;;;;;;;17.90;100.00;96925.13;5085091;28;20401;-77
2022/08/06 06:17:35;;;;;;;3.83;1.80;;;;;;;18.50;100.00;96922.22;5085883;28;20031;-77
2022/08/06 06:20:13;;;;;;;4.95;2.17;;;;;;;18.33;100.00;96922.47;5086318;28;20511;-74
2022/08/06 06:22:53;;;;;;;9.52;4.30;;;;;;;18.23;100.00;96916.66;5086328;28;20115;-76
2022/08/06 06:25:29;;;;;;;5.05;2.30;;;;;;;18.76;100.00;96911.81;5086626;28;20036;-75
2022/08/06 06:28:20;;;;;;;6.82;2.08;;;;;;;18.82;100.00;96910.22;5083713;28;20017;-75
2022/08/06 06:31:04;;;;;;;5.18;1.98;;;;;;;18.68;100.00;96911.09;5086036;28;20032;-75
2022/08/06 06:34:19;;;;;;;5.93;2.30;;;;;;;18.83;100.00;96907.34;5083567;28;20519;-75
2022/08/06 06:37:01;;;;;;;5.60;2.50;;;;;;;18.68;100.00;96921.75;5066179;28;20098;-76
2022/08/06 06:39:39;;;;;;;6.32;2.55;;;;;;;18.88;100.00;96916.59;5068109;28;20689;-77
2022/08/06 06:42:25;;;;;;;4.40;2.30;;;;;;;18.38;100.00;96924.59;5079640;28;20051;-77
2022/08/06 06:45:04;;;;;;;3.72;2.03;;;;;;;18.70;100.00;96917.88;5088010;28;20056;-77
2022/08/06 06:47:45;;;;;;;5.60;3.35;;;;;;;18.40;100.00;96929.72;5084739;28;20534;-74
2022/08/06 06:50:20;;;;;;;7.00;2.55;;;;;;;18.68;100.00;96933.25;5083115;28;20055;-76
2022/08/06 06:52:49;;;;;;;4.60;2.20;;;;;;;18.99;100.00;96927.53;5088002;28;20050;-76
2022/08/06 06:55:25;;;;;;;4.50;2.38;;;;;;;19.31;100.00;96927.94;5089388;28;20050;-75
2022/08/06 06:58:03;;;;;;;4.20;2.22;;;;;;;19.39;100.00;96917.09;5088900;28;20123;-76
2022/08/06 07:00:32;;;;;;;4.20;1.83;;;;;;;19.67;98.44;96922.38;5089214;28;20047;-77
2022/08/06 07:02:59;;;;;;;5.43;2.10;;;;;;;19.61;93.16;96931.16;5087535;28;20104;-76
2022/08/06 07:05:27;;;;;;;4.03;1.92;;;;;;;20.17;90.21;96922.13;5070259;28;20494;-76
2022/08/06 07:07:54;;;;;;;4.05;1.98;;;;;;;20.57;83.58;96927.53;5082256;28;20132;-76
2022/08/06 07:10:22;;;;;;;4.75;1.95;;;;;;;20.39;83.84;96933.47;5084214;28;20122;-76
2022/08/06 07:12:48;;;;;;;2.90;1.70;;;;;;;19.75;86.82;96932.91;5085563;28;20381;-76
2022/08/06 07:15:15;;;;;;;4.47;1.55;;;;;;;19.69;87.07;96933.69;5071759;28;20125;-78
2022/08/06 07:17:46;;;;;;;6.10;1.77;;;;;;;19.50;85.95;96951.22;5075383;28;20492;-76
2022/08/06 07:20:20;;;;;;;5.20;1.70;;;;;;;20.51;80.18;96941.69;5076000;28;20487;-76
2022/08/06 07:22:49;;;;;;;4.22;1.75;;;;;;;20.35;82.18;96943.69;5089527;28;20664;-76
2022/08/06 07:25:16;;;;;;;4.28;1.55;;;;;;;20.19;78.00;96944.09;5089316;28;20035;-76
2022/08/06 07:27:50;;;;;;;6.30;1.77;;;;;;;20.58;76.42;96943.34;5084522;28;20036;-75
2022/08/06 07:30:17;;;;;;;4.03;2.42;;;;;;;20.81;78.14;96947.47;5085481;28;20111;-76
2022/08/06 07:32:44;;;;;;;9.57;4.65;;;;;;;20.76;75.83;96949.91;5086489;28;20035;-76
2022/08/06 07:35:12;;;;;;;2.40;1.20;;;;;;;21.22;73.79;96944.53;5082284;28;20504;-76
2022/08/06 07:37:44;;;;;;;6.22;2.13;;;;;;;20.83;71.79;96961.47;5065700;28;20697;-76
2022/08/06 07:40:19;;;;;;;2.47;1.30;;;;;;;21.29;69.66;96960.56;5079504;28;20471;-75
2022/08/06 07:42:48;;;;;;;4.30;2.15;;;;;;;20.87;73.48;96962.69;5076977;28;20036;-77
2022/08/06 07:45:15;;;;;;;5.95;2.88;;;;;;;21.11;71.66;96964.72;5086340;28;20077;-76
2022/08/06 07:47:44;;;;;;;4.32;1.55;;;;;;;21.42;68.59;96960.56;5078560;28;20040;-76
2022/08/06 07:50:13;;;;;;;2.90;1.60;;;;;;;21.60;64.95;96962.59;5078784;28;20031;-77
2022/08/06 07:52:40;;;;;;;3.47;1.20;;;;;;;22.17;62.56;96966.28;5086691;28;20561;-75
2022/08/06 07:55:10;;;;;;;3.85;1.40;;;;;;;22.02;60.79;96957.66;5085962;28;20031;-76
2022/08/06 07:57:37;;;;;;;5.05;1.75;;;;;;;21.78;59.59;96964.56;5099158;28;20057;-75
2022/08/06 08:00:04;;;;;;;2.88;1.40;;;;;;;21.76;60.49;96962.09;5085307;28;20039;-76
2022/08/06 08:02:38;;;;;;;7.53;1.63;;;;;;;22.21;57.78;96969.34;5086075;28;20047;-75
2022/08/06 08:07:51;;;;;;;6.47;3.72;;;;;;;22.68;55.83;96962.63;5077314;28;20028;-76
2022/08/06 08:10:19;;;;;;;3.28;1.50;;;;;;;23.00;52.76;96958.09;5081643;28;20028;-75
2022/08/06 08:12:45;;;;;;;2.78;1.20;;;;;;;23.02;52.82;96966.72;5084129;28;20040;-76
2022/08/06 08:15:10;;;;;;;3.08;1.70;;;;;;;23.05;50.45;96963.59;5088575;28;20043;-76
2022/08/06 08:17:37;;;;;;;3.50;1.20;;;;;;;22.40;50.84;96972.94;5063008;28;20020;-74
2022/08/06 08:20:08;;;;;;;11.95;2.63;;;;;;;22.23;50.26;96973.47;5084252;28;20118;-74
2022/08/06 08:22:34;;;;;;;2.83;1.27;;;;;;;21.98;51.95;96969.84;5085231;28;20115;-76
2022/08/06 08:25:00;;;;;;;2.72;1.00;;;;;;;21.03;55.16;96969.47;5089214;28;20512;-76
2022/08/06 08:27:25;;;;;;;1.58;0.90;;;;;;;21.37;52.44;96966.56;5083365;28;20032;-76
2022/08/06 08:29:52;;;;;;;1.42;1.08;;;;;;;22.08;50.93;96964.84;5088238;28;20031;-76
2022/08/06 08:32:18;;;;;;;3.83;2.05;;;;;;;21.81;50.25;96964.97;5077975;28;20373;-76
2022/08/06 08:34:43;;;;;;;3.78;1.58;;;;;;;20.70;52.72;96968.44;5084067;28;20119;-76
2022/08/06 08:37:09;;;;;;;2.72;1.08;;;;;;;20.59;54.67;96974.41;5072906;28;20119;-76
2022/08/06 08:39:35;;;;;;;4.90;1.85;;;;;;;21.37;51.24;96963.88;5083339;28;20036;-75
2022/08/06 08:42:09;;;;;;;1.88;1.20;;;;;;;20.74;54.26;96970.72;5085866;28;20032;-75
2022/08/06 08:44:35;;;;;;;2.00;0.98;;;;;;;21.14;54.58;96974.19;5067006;28;20070;-75
2022/08/06 08:47:03;;;;;;;1.92;1.10;;;;;;;21.76;53.67;96969.31;5075398;28;20011;-75
2022/08/06 08:49:38;;;;;;;3.45;1.00;;;;;;;21.82;51.54;96966.59;5104112;28;20028;-75
2022/08/06 08:52:07;;;;;;;3.40;0.90;;;;;;;21.72;53.12;96965.41;5099400;28;20024;-75
2022/08/06 08:54:36;;;;;;;3.00;1.23;;;;;;;22.05;52.08;96971.44;5086171;28;20058;-76
2022/08/06 08:57:05;;;;;;;4.70;0.98;;;;;;;21.91;51.46;96969.88;5088369;28;20028;-77
2022/08/06 08:59:32;;;;;;;3.22;1.08;;;;;;;22.21;50.13;96964.00;5087706;28;20064;-73
2022/08/06 09:01:58;;;;;;;1.92;0.93;;;;;;;23.10;46.82;96962.09;5090608;28;20034;-77
2022/08/06 09:04:25;;;;;;;6.97;1.30;;;;;;;24.57;43.71;96956.66;5095232;28;20103;-78
2022/08/06 09:06:51;;;;;;;4.38;1.70;;;;;;;24.49;41.60;96963.19;5085612;28;20063;-77
2022/08/06 09:09:18;;;;;;;2.22;1.05;;;;;;;24.90;39.06;96956.13;5087712;28;20775;-75
2022/08/06 09:11:44;;;;;;;1.73;1.00;;;;;;;25.10;40.71;96956.59;5092886;28;20057;-76
2022/08/06 09:14:10;;;;;;;3.72;1.00;;;;;;;25.70;39.87;96952.00;5094777;28;20035;-77
2022/08/06 09:16:36;;;;;;;2.83;1.20;;;;;;;24.29;40.63;96963.44;5090432;28;20035;-77
2022/08/06 09:19:05;;;;;;;4.47;1.25;;;;;;;25.14;39.86;96957.78;5086933;28;21303;-75
2022/08/06 09:21:32;;;;;;;5.28;1.00;;;;;;;25.46;39.30;96960.13;5093872;28;20107;-78
2022/08/06 09:23:58;;;;;;;5.05;1.10;;;;;;;24.96;41.33;96960.56;5086712;28;20016;-77
2022/08/06 09:26:24;;;;;;;3.28;1.13;;;;;;;24.94;39.65;96955.41;5084089;28;20098;-75
2022/08/06 09:28:50;;;;;;;3.10;1.25;;;;;;;24.96;39.68;96957.06;5090999;28;20063;-75
2022/08/06 09:31:18;;;;;;;3.15;1.02;;;;;;;24.52;39.72;96962.72;5090901;28;20058;-77
2022/08/06 09:34:02;;;;;;;2.70;1.00;;;;;;;24.78;39.57;96963.34;5089399;28;20465;-75
2022/08/06 09:36:40;;;;;;;3.63;0.73;;;;;;;26.05;39.00;96957.31;5079570;28;20032;-77
2022/08/06 09:39:05;;;;;;;1.38;0.77;;;;;;;26.56;37.32;96959.13;5097043;28;20032;-76
2022/08/06 09:41:31;;;;;;;3.40;1.00;;;;;;;27.54;34.80;96963.34;5079240;28;20032;-77
2022/08/06 09:43:57;;;;;;;2.70;0.98;;;;;;;27.67;34.63;96955.69;5091659;28;20024;-76
2022/08/06 09:46:45;;;;;;;3.28;1.10;;;;;;;25.91;36.96;96958.66;5086529;28;20486;-77
2022/08/06 09:49:14;;;;;;;3.70;1.20;;;;;;;24.93;37.53;96967.22;5086447;28;20023;-77
2022/08/06 09:51:40;;;;;;;4.93;1.10;;;;;;;24.35;38.90;96967.09;5093897;28;20031;-78
2022/08/06 09:54:15;;;;;;;3.45;0.90;;;;;;;25.85;37.22;96971.19;5092799;28;20024;-78
2022/08/06 09:56:45;;;;;;;2.25;0.90;;;;;;;25.52;37.41;96969.97;5094201;28;20040;-78
2022/08/06 09:59:12;;;;;;;1.73;0.75;;;;;;;26.95;35.48;96961.91;5088742;28;20035;-78
2022/08/06 10:01:46;;;;;;;1.77;0.85;;;;;;;27.77;34.16;96963.16;5093683;28;20104;-77
2022/08/06 10:04:27;;;;;;;2.45;1.02;;;;;;;27.77;33.70;96952.34;5090386;28;20086;-77
2022/08/06 10:06:59;;;;;;;2.95;1.38;;;;;;;28.04;33.21;96951.56;5085116;28;20032;-77
2022/08/06 10:09:25;;;;;;;;;;;;;;;27.86;32.38;96961.63;5083796;28;20036;-78
2022/08/06 10:11:52;;;;;;;2.75;1.00;;;;;;;25.17;35.36;96967.28;5092112;28;20014;-77
2022/08/06 10:14:33;;;;;;;4.63;1.20;;;;;;;25.81;35.64;96957.38;5092650;28;20031;-78
2022/08/06 10:17:12;;;;;;;1.70;1.13;;;;;;;27.44;34.42;96954.03;5080496;28;20028;-77
2022/08/06 10:19:41;;;;;;;1.42;0.77;;;;;;;27.92;32.96;96955.19;5087361;28;20043;-78
2022/08/06 10:22:15;;;;;;;2.33;1.20;;;;;;;26.13;34.24;96961.53;5089652;28;20039;-77
2022/08/06 10:24:50;;;;;;;3.50;1.10;;;;;;;24.16;37.43;96967.13;5090078;28;20389;-77
2022/08/06 10:27:27;;;;;;;2.35;1.00;;;;;;;26.65;34.22;96958.72;5085723;28;20056;-77
2022/08/06 10:29:57;;;;;;;2.72;1.10;;;;;;;26.59;34.65;96955.09;5085774;28;20089;-77
2022/08/06 10:32:29;;;;;;;4.25;1.38;;;;;;;27.55;33.41;96957.69;5084670;28;20028;-76
2022/08/06 10:34:57;;;;;;;4.30;1.70;;;;;;;27.90;33.49;96957.38;5091447;28;20047;-77
2022/08/06 10:37:23;;;;;;;7.07;1.35;;;;;;;28.00;32.91;96961.22;5088385;28;20462;-77
2022/08/06 10:39:56;;;;;;;7.78;1.30;;;;;;;28.99;31.28;96952.75;5096824;28;20063;-77
2022/08/06 10:42:22;;;;;;;2.97;1.00;;;;;;;27.37;32.05;96958.78;5089229;28;20020;-78
2022/08/06 10:44:52;;;;;;;3.50;0.90;;;;;;;26.31;32.95;96966.72;5088380;28;20464;-78
2022/08/06 10:47:18;;;;;;;5.10;2.05;;;;;;;27.99;31.82;96955.00;5082728;28;20112;-76
2022/08/06 10:49:45;;;;;;;3.53;1.20;;;;;;;28.24;30.93;96957.19;5081840;28;20051;-77
2022/08/06 10:52:12;;;;;;;3.08;1.65;;;;;;;28.74;31.27;96950.69;5092725;28;20063;-78
2022/08/06 10:54:39;;;;;;;2.28;1.65;;;;;;;29.83;29.89;96953.84;5091654;28;20032;-77
2022/08/06 10:57:08;;;;;;;8.20;1.58;;;;;;;29.82;29.54;96952.22;5087674;28;20040;-77
2022/08/06 10:59:34;;;;;;;2.53;0.90;;;;;;;29.59;29.24;96950.72;5087551;28;20024;-78
2022/08/06 11:02:28;;;;;;;2.72;1.00;;;;;;;29.27;29.14;96954.31;5090769;28;20786;-78
2022/08/06 11:05:00;;;;;;;2.78;1.10;;;;;;;28.44;30.03;96956.63;5074629;28;20128;-77
2022/08/06 11:07:36;;;;;;;;;;;;;;;28.72;30.22;96950.09;5082831;28;20120;-78
2022/08/06 11:10:20;;;;;;;5.50;1.27;;;;;;;27.71;31.29;96964.09;5091534;28;20530;-78
2022/08/06 11:13:10;;;;;;;1.70;1.02;;;;;;;28.78;30.20;96946.38;5092560;28;20067;-76
2022/08/06 11:15:37;;;;;;;4.70;1.00;;;;;;;28.64;30.35;96948.69;5092706;28;20093;-78
2022/08/06 11:18:05;;;;;;;2.40;0.90;;;;;;;29.83;29.51;96949.25;5065544;28;20544;-75
2022/08/06 11:20:31;;;;;;;4.30;1.30;;;;;;;29.22;29.06;96946.19;5089169;28;20054;-77
2022/08/06 11:23:00;;;;;;;3.80;1.02;;;;;;;29.51;28.51;96949.34;5089162;28;20027;-77
2022/08/06 11:25:50;;;;;;;3.60;1.10;;;;;;;29.64;28.85;96941.81;5085108;28;20036;-77
2022/08/06 11:28:40;;;;;;;2.88;0.90;;;;;;;28.63;29.41;96940.81;5082392;28;20565;-77
2022/08/06 11:31:27;;;;;;;3.67;1.13;;;;;;;29.26;28.25;96933.75;5086697;28;20032;-75
2022/08/06 11:33:59;;;;;;;2.10;0.80;;;;;;;28.11;30.20;96935.97;5088412;28;20032;-77
2022/08/06 11:36:27;;;;;;;2.88;1.00;;;;;;;28.56;30.02;96937.50;5068420;28;20032;-77
2022/08/06 11:38:52;;;;;;;6.47;1.23;;;;;;;29.21;29.43;96922.88;5087528;28;20539;-76
2022/08/06 11:41:24;;;;;;;3.28;1.13;;;;;;;28.60;29.35;96922.38;5084804;28;20043;-75
2022/08/06 11:43:53;;;;;;;2.45;1.00;;;;;;;28.89;29.62;96920.19;5085462;28;20051;-77
2022/08/06 11:46:36;;;;;;;2.35;0.88;;;;;;;29.99;27.95;96914.88;5102622;28;20047;-77
2022/08/06 11:49:19;;;;;;;4.32;1.23;;;;;;;30.19;28.14;96913.31;5087391;28;20071;-77